sensor_id;sensor_type;location;lat;lon;timestamp;temperature;humidity
51996;DHT22;38010;53.264;6.592;2023-04-03T00:02:07;14.60;99.90
51996;DHT22;38010;53.264;6.592;2023-04-03T00:04:33;14.60;99.90
51996;DHT22;38010;53.264;6.592;2023-04-03T00:06:59;14.60;99.90
51996;DHT22;38010;53.264;6.592;2023-04-03T00:09:24;14.60;99.90
51996;DHT22;38010;53.264;6.592;2023-04-03T00:11:50;14.60;99.90
51996;DHT22;38010;53.264;6.592;2023-04-03T00:14:16;14.60;99.90
51996;DHT22;38010;53.264;6.592;2023-04-03T00:16:42;14.60;99.90
51996;DHT22;38010;53.264;6.592;2023-04-03T00:19:08;14.60;99.90
51996;DHT22;38010;53.264;6.592;2023-04-03T00:21:34;14.60;99.90
51996;DHT22;38010;53.264;6.592;2023-04-03T00:23:59;14.50;99.90
51996;DHT22;38010;53.264;6.592;2023-04-03T00:26:25;14.50;99.90
51996;DHT22;38010;53.264;6.592;2023-04-03T00:28:51;14.50;99.90
51996;DHT22;38010;53.264;6.592;2023-04-03T00:31:17;14.50;99.90
51996;DHT22;38010;53.264;6.592;2023-04-03T00:33:42;14.50;99.90
51996;DHT22;38010;53.264;6.592;2023-04-03T00:36:09;14.50;99.90
51996;DHT22;38010;53.264;6.592;2023-04-03T00:38:36;14.50;99.90
51996;DHT22;38010;53.264;6.592;2023-04-03T00:41:02;14.50;99.90
51996;DHT22;38010;53.264;6.592;2023-04-03T00:43:28;14.50;99.90
51996;DHT22;38010;53.264;6.592;2023-04-03T00:45:56;14.50;99.90
51996;DHT22;38010;53.264;6.592;2023-04-03T00:48:27;14.40;99.90
51996;DHT22;38010;53.264;6.592;2023-04-03T00:50:54;14.50;99.90
51996;DHT22;38010;53.264;6.592;2023-04-03T00:53:40;14.40;99.90
51996;DHT22;38010;53.264;6.592;2023-04-03T00:56:10;14.40;99.90
51996;DHT22;38010;53.264;6.592;2023-04-03T00:58:41;14.40;99.90
51996;DHT22;38010;53.264;6.592;2023-04-03T01:01:12;14.40;99.90
51996;DHT22;38010;53.264;6.592;2023-04-03T01:03:40;14.40;99.90
51996;DHT22;38010;53.264;6.592;2023-04-03T01:06:05;14.40;99.90
51996;DHT22;38010;53.264;6.592;2023-04-03T01:08:31;14.40;99.90
51996;DHT22;38010;53.264;6.592;2023-04-03T01:10:57;14.40;99.90
51996;DHT22;38010;53.264;6.592;2023-04-03T01:13:26;14.40;99.90
51996;DHT22;38010;53.264;6.592;2023-04-03T01:15:52;14.40;99.90
51996;DHT22;38010;53.264;6.592;2023-04-03T01:18:18;14.30;99.90
51996;DHT22;38010;53.264;6.592;2023-04-03T01:23:41;14.30;99.90
51996;DHT22;38010;53.264;6.592;2023-04-03T01:26:08;14.30;99.90
51996;DHT22;38010;53.264;6.592;2023-04-03T01:28:35;14.30;99.90
51996;DHT22;38010;53.264;6.592;2023-04-03T01:31:12;14.30;99.90
51996;DHT22;38010;53.264;6.592;2023-04-03T01:33:41;14.30;99.90
51996;DHT22;38010;53.264;6.592;2023-04-03T01:36:07;14.30;99.90
51996;DHT22;38010;53.264;6.592;2023-04-03T01:38:33;14.30;99.90
51996;DHT22;38010;53.264;6.592;2023-04-03T01:40:59;14.30;99.90
51996;DHT22;38010;53.264;6.592;2023-04-03T01:43:25;14.30;99.90
51996;DHT22;38010;53.264;6.592;2023-04-03T01:45:51;14.30;99.90
51996;DHT22;38010;53.264;6.592;2023-04-03T01:48:18;14.20;99.90
51996;DHT22;38010;53.264;6.592;2023-04-03T01:50:44;14.20;99.90
51996;DHT22;38010;53.264;6.592;2023-04-03T01:53:10;14.20;99.90
51996;DHT22;38010;53.264;6.592;2023-04-03T01:55:36;14.20;99.90
51996;DHT22;38010;53.264;6.592;2023-04-03T01:58:01;14.20;99.90
51996;DHT22;38010;53.264;6.592;2023-04-03T02:00:27;14.20;99.90
51996;DHT22;38010;53.264;6.592;2023-04-03T02:02:53;14.20;99.90
51996;DHT22;38010;53.264;6.592;2023-04-03T02:05:19;14.20;99.90
51996;DHT22;38010;53.264;6.592;2023-04-03T02:07:44;14.20;99.90
51996;DHT22;38010;53.264;6.592;2023-04-03T02:10:11;14.20;99.90
51996;DHT22;38010;53.264;6.592;2023-04-03T02:12:37;14.20;99.90
51996;DHT22;38010;53.264;6.592;2023-04-03T02:15:03;14.20;99.90
51996;DHT22;38010;53.264;6.592;2023-04-03T02:17:29;14.20;99.90
51996;DHT22;38010;53.264;6.592;2023-04-03T02:19:55;14.20;99.90
51996;DHT22;38010;53.264;6.592;2023-04-03T02:22:21;14.20;99.90
51996;DHT22;38010;53.264;6.592;2023-04-03T02:24:46;14.20;99.90
51996;DHT22;38010;53.264;6.592;2023-04-03T02:27:12;14.10;99.90
51996;DHT22;38010;53.264;6.592;2023-04-03T02:29:38;14.10;99.90
51996;DHT22;38010;53.264;6.592;2023-04-03T02:32:04;14.10;99.90
51996;DHT22;38010;53.264;6.592;2023-04-03T02:34:30;14.10;99.90
51996;DHT22;38010;53.264;6.592;2023-04-03T02:36:56;14.10;99.90
51996;DHT22;38010;53.264;6.592;2023-04-03T02:39:21;14.10;99.90
51996;DHT22;38010;53.264;6.592;2023-04-03T02:41:47;14.10;99.90
51996;DHT22;38010;53.264;6.592;2023-04-03T02:44:13;14.10;99.90
51996;DHT22;38010;53.264;6.592;2023-04-03T02:46:39;14.10;99.90
51996;DHT22;38010;53.264;6.592;2023-04-03T02:49:04;14.10;99.90
51996;DHT22;38010;53.264;6.592;2023-04-03T02:51:31;14.10;99.90
51996;DHT22;38010;53.264;6.592;2023-04-03T02:53:56;14.00;99.90
51996;DHT22;38010;53.264;6.592;2023-04-03T02:56:22;14.10;99.90
51996;DHT22;38010;53.264;6.592;2023-04-03T02:58:48;14.10;99.90
51996;DHT22;38010;53.264;6.592;2023-04-03T03:01:14;14.00;99.90
51996;DHT22;38010;53.264;6.592;2023-04-03T03:03:39;14.00;99.90
51996;DHT22;38010;53.264;6.592;2023-04-03T03:06:08;14.00;99.90
51996;DHT22;38010;53.264;6.592;2023-04-03T03:08:34;14.10;99.90
51996;DHT22;38010;53.264;6.592;2023-04-03T03:11:00;14.00;99.90
51996;DHT22;38010;53.264;6.592;2023-04-03T03:13:26;14.00;99.90
51996;DHT22;38010;53.264;6.592;2023-04-03T03:15:52;14.10;99.90
51996;DHT22;38010;53.264;6.592;2023-04-03T03:18:18;14.10;99.90
51996;DHT22;38010;53.264;6.592;2023-04-03T03:20:44;14.10;99.90
51996;DHT22;38010;53.264;6.592;2023-04-03T03:23:10;14.10;99.90
51996;DHT22;38010;53.264;6.592;2023-04-03T03:25:40;14.10;99.90
51996;DHT22;38010;53.264;6.592;2023-04-03T03:28:06;14.10;99.90
51996;DHT22;38010;53.264;6.592;2023-04-03T03:30:33;14.10;99.90
51996;DHT22;38010;53.264;6.592;2023-04-03T03:32:59;14.10;99.90
51996;DHT22;38010;53.264;6.592;2023-04-03T03:35:25;14.10;99.90
51996;DHT22;38010;53.264;6.592;2023-04-03T03:37:51;14.20;99.90
51996;DHT22;38010;53.264;6.592;2023-04-03T03:40:16;14.20;99.90
51996;DHT22;38010;53.264;6.592;2023-04-03T03:42:42;14.20;99.90
51996;DHT22;38010;53.264;6.592;2023-04-03T03:45:08;14.20;99.90
51996;DHT22;38010;53.264;6.592;2023-04-03T03:47:34;14.20;99.90
51996;DHT22;38010;53.264;6.592;2023-04-03T03:50:01;14.20;99.90
51996;DHT22;38010;53.264;6.592;2023-04-03T03:52:27;14.20;99.90
51996;DHT22;38010;53.264;6.592;2023-04-03T03:54:52;14.20;99.90
51996;DHT22;38010;53.264;6.592;2023-04-03T03:57:18;14.20;99.90
51996;DHT22;38010;53.264;6.592;2023-04-03T03:59:44;14.20;99.90
51996;DHT22;38010;53.264;6.592;2023-04-03T04:02:10;14.20;99.90
51996;DHT22;38010;53.264;6.592;2023-04-03T04:04:37;14.10;99.90
51996;DHT22;38010;53.264;6.592;2023-04-03T04:07:03;14.10;99.90
51996;DHT22;38010;53.264;6.592;2023-04-03T04:09:29;14.10;99.90
51996;DHT22;38010;53.264;6.592;2023-04-03T04:11:54;14.10;99.90
51996;DHT22;38010;53.264;6.592;2023-04-03T04:14:20;14.10;99.90
51996;DHT22;38010;53.264;6.592;2023-04-03T04:16:47;14.10;99.90
51996;DHT22;38010;53.264;6.592;2023-04-03T04:19:12;14.20;99.90
51996;DHT22;38010;53.264;6.592;2023-04-03T04:21:38;14.10;99.90
51996;DHT22;38010;53.264;6.592;2023-04-03T04:24:05;14.20;99.90
51996;DHT22;38010;53.264;6.592;2023-04-03T04:26:31;14.20;99.90
51996;DHT22;38010;53.264;6.592;2023-04-03T04:28:57;14.20;99.90
51996;DHT22;38010;53.264;6.592;2023-04-03T04:31:23;14.20;99.90
51996;DHT22;38010;53.264;6.592;2023-04-03T04:33:48;14.20;99.90
51996;DHT22;38010;53.264;6.592;2023-04-03T04:36:14;14.30;99.90
51996;DHT22;38010;53.264;6.592;2023-04-03T04:38:40;14.20;99.90
51996;DHT22;38010;53.264;6.592;2023-04-03T04:41:07;14.30;99.90
51996;DHT22;38010;53.264;6.592;2023-04-03T04:43:33;14.30;99.90
51996;DHT22;38010;53.264;6.592;2023-04-03T04:48:27;14.30;99.90
51996;DHT22;38010;53.264;6.592;2023-04-03T04:50:53;14.30;99.90
51996;DHT22;38010;53.264;6.592;2023-04-03T04:53:19;14.30;99.90
51996;DHT22;38010;53.264;6.592;2023-04-03T04:55:45;14.30;99.90
51996;DHT22;38010;53.264;6.592;2023-04-03T04:58:10;14.30;99.90
51996;DHT22;38010;53.264;6.592;2023-04-03T05:00:36;14.30;99.90
51996;DHT22;38010;53.264;6.592;2023-04-03T05:03:02;14.30;99.90
51996;DHT22;38010;53.264;6.592;2023-04-03T05:05:28;14.30;99.90
51996;DHT22;38010;53.264;6.592;2023-04-03T05:07:53;14.30;99.90
51996;DHT22;38010;53.264;6.592;2023-04-03T05:10:19;14.30;99.90
51996;DHT22;38010;53.264;6.592;2023-04-03T05:12:46;14.30;99.90
51996;DHT22;38010;53.264;6.592;2023-04-03T05:15:11;14.30;99.90
51996;DHT22;38010;53.264;6.592;2023-04-03T05:17:37;14.30;99.90
51996;DHT22;38010;53.264;6.592;2023-04-03T05:20:04;14.30;99.90
51996;DHT22;38010;53.264;6.592;2023-04-03T05:22:30;14.30;99.90
51996;DHT22;38010;53.264;6.592;2023-04-03T05:24:56;14.30;99.90
51996;DHT22;38010;53.264;6.592;2023-04-03T05:27:22;14.30;99.90
51996;DHT22;38010;53.264;6.592;2023-04-03T05:29:50;14.20;99.90
51996;DHT22;38010;53.264;6.592;2023-04-03T05:32:16;14.30;99.90
51996;DHT22;38010;53.264;6.592;2023-04-03T05:34:42;14.30;99.90
51996;DHT22;38010;53.264;6.592;2023-04-03T05:37:07;14.20;99.90
51996;DHT22;38010;53.264;6.592;2023-04-03T05:39:33;14.20;99.90
51996;DHT22;38010;53.264;6.592;2023-04-03T05:41:59;14.20;99.90
51996;DHT22;38010;53.264;6.592;2023-04-03T05:44:25;14.20;99.90
51996;DHT22;38010;53.264;6.592;2023-04-03T05:46:51;14.20;99.90
51996;DHT22;38010;53.264;6.592;2023-04-03T05:49:17;14.20;99.90
51996;DHT22;38010;53.264;6.592;2023-04-03T05:51:43;14.30;99.90
51996;DHT22;38010;53.264;6.592;2023-04-03T05:54:29;14.30;99.90
51996;DHT22;38010;53.264;6.592;2023-04-03T05:56:55;14.30;99.90
51996;DHT22;38010;53.264;6.592;2023-04-03T05:59:21;14.30;99.90
51996;DHT22;38010;53.264;6.592;2023-04-03T06:01:47;14.30;99.90
51996;DHT22;38010;53.264;6.592;2023-04-03T06:04:14;14.40;99.90
51996;DHT22;38010;53.264;6.592;2023-04-03T06:06:53;14.40;99.90
51996;DHT22;38010;53.264;6.592;2023-04-03T06:09:22;14.40;99.90
51996;DHT22;38010;53.264;6.592;2023-04-03T06:11:48;14.40;99.90
51996;DHT22;38010;53.264;6.592;2023-04-03T06:14:14;14.40;99.90
51996;DHT22;38010;53.264;6.592;2023-04-03T06:16:40;14.40;99.90
51996;DHT22;38010;53.264;6.592;2023-04-03T06:19:07;14.40;99.90
51996;DHT22;38010;53.264;6.592;2023-04-03T06:21:33;14.40;99.90
51996;DHT22;38010;53.264;6.592;2023-04-03T06:23:58;14.40;99.90
51996;DHT22;38010;53.264;6.592;2023-04-03T06:26:24;14.30;99.90
51996;DHT22;38010;53.264;6.592;2023-04-03T06:28:50;14.30;99.90
51996;DHT22;38010;53.264;6.592;2023-04-03T06:31:15;14.30;99.90
51996;DHT22;38010;53.264;6.592;2023-04-03T06:33:42;14.30;99.90
51996;DHT22;38010;53.264;6.592;2023-04-03T06:36:10;14.30;99.90
51996;DHT22;38010;53.264;6.592;2023-04-03T06:38:37;14.30;99.90
51996;DHT22;38010;53.264;6.592;2023-04-03T06:41:03;14.30;99.90
51996;DHT22;38010;53.264;6.592;2023-04-03T06:43:28;14.30;99.90
51996;DHT22;38010;53.264;6.592;2023-04-03T06:45:56;14.30;99.90
51996;DHT22;38010;53.264;6.592;2023-04-03T06:48:22;14.30;99.90
51996;DHT22;38010;53.264;6.592;2023-04-03T06:50:48;14.20;99.90
51996;DHT22;38010;53.264;6.592;2023-04-03T06:53:14;14.20;99.90
51996;DHT22;38010;53.264;6.592;2023-04-03T06:55:40;14.20;99.90
51996;DHT22;38010;53.264;6.592;2023-04-03T06:58:07;14.20;99.90
51996;DHT22;38010;53.264;6.592;2023-04-03T07:00:33;14.20;99.90
51996;DHT22;38010;53.264;6.592;2023-04-03T07:02:59;14.20;99.90
51996;DHT22;38010;53.264;6.592;2023-04-03T07:05:25;14.20;99.90
51996;DHT22;38010;53.264;6.592;2023-04-03T07:07:52;14.10;99.90
51996;DHT22;38010;53.264;6.592;2023-04-03T07:10:18;14.10;99.90
51996;DHT22;38010;53.264;6.592;2023-04-03T07:12:44;14.10;99.90
51996;DHT22;38010;53.264;6.592;2023-04-03T07:15:10;14.10;99.90
51996;DHT22;38010;53.264;6.592;2023-04-03T07:17:38;14.10;99.90
51996;DHT22;38010;53.264;6.592;2023-04-03T07:20:04;14.10;99.90
51996;DHT22;38010;53.264;6.592;2023-04-03T07:22:30;14.10;99.90
51996;DHT22;38010;53.264;6.592;2023-04-03T07:24:56;14.10;99.90
51996;DHT22;38010;53.264;6.592;2023-04-03T07:27:22;14.00;99.90
51996;DHT22;38010;53.264;6.592;2023-04-03T07:29:47;14.00;99.90
51996;DHT22;38010;53.264;6.592;2023-04-03T07:32:16;14.00;99.90
51996;DHT22;38010;53.264;6.592;2023-04-03T07:34:43;14.00;99.90
51996;DHT22;38010;53.264;6.592;2023-04-03T07:37:09;14.00;99.90
51996;DHT22;38010;53.264;6.592;2023-04-03T07:39:35;14.00;99.90
51996;DHT22;38010;53.264;6.592;2023-04-03T07:42:01;14.00;99.90
51996;DHT22;38010;53.264;6.592;2023-04-03T07:44:27;14.00;99.90
51996;DHT22;38010;53.264;6.592;2023-04-03T07:46:53;14.00;99.90
51996;DHT22;38010;53.264;6.592;2023-04-03T07:49:21;14.00;99.90
51996;DHT22;38010;53.264;6.592;2023-04-03T07:51:50;13.90;99.90
51996;DHT22;38010;53.264;6.592;2023-04-03T07:54:15;13.90;99.90
51996;DHT22;38010;53.264;6.592;2023-04-03T07:56:41;13.90;99.90
51996;DHT22;38010;53.264;6.592;2023-04-03T07:59:09;13.90;99.90
51996;DHT22;38010;53.264;6.592;2023-04-03T08:01:35;13.90;99.90
51996;DHT22;38010;53.264;6.592;2023-04-03T08:04:01;13.90;99.90
51996;DHT22;38010;53.264;6.592;2023-04-03T08:06:27;13.90;99.90
51996;DHT22;38010;53.264;6.592;2023-04-03T08:08:55;13.90;99.90
51996;DHT22;38010;53.264;6.592;2023-04-03T08:11:21;13.90;99.90
51996;DHT22;38010;53.264;6.592;2023-04-03T08:13:49;13.90;99.90
51996;DHT22;38010;53.264;6.592;2023-04-03T08:16:20;13.90;99.90
51996;DHT22;38010;53.264;6.592;2023-04-03T08:18:47;13.90;99.90
51996;DHT22;38010;53.264;6.592;2023-04-03T08:21:13;13.80;99.90
51996;DHT22;38010;53.264;6.592;2023-04-03T08:23:40;13.90;99.90
51996;DHT22;38010;53.264;6.592;2023-04-03T08:26:09;13.80;99.90
51996;DHT22;38010;53.264;6.592;2023-04-03T08:28:35;13.80;99.90
51996;DHT22;38010;53.264;6.592;2023-04-03T08:31:05;13.80;99.90
51996;DHT22;38010;53.264;6.592;2023-04-03T08:33:32;13.80;99.90
51996;DHT22;38010;53.264;6.592;2023-04-03T08:35:57;13.80;99.90
51996;DHT22;38010;53.264;6.592;2023-04-03T08:38:23;13.80;99.90
51996;DHT22;38010;53.264;6.592;2023-04-03T08:41:04;13.80;99.90
51996;DHT22;38010;53.264;6.592;2023-04-03T08:44:17;13.80;99.90
51996;DHT22;38010;53.264;6.592;2023-04-03T08:46:17;13.80;99.90
51996;DHT22;38010;53.264;6.592;2023-04-03T08:48:46;13.80;99.90
51996;DHT22;38010;53.264;6.592;2023-04-03T08:51:17;13.80;99.90
51996;DHT22;38010;53.264;6.592;2023-04-03T08:54:04;13.80;99.90
51996;DHT22;38010;53.264;6.592;2023-04-03T08:56:33;13.80;99.90
51996;DHT22;38010;53.264;6.592;2023-04-03T08:59:04;13.80;99.90
51996;DHT22;38010;53.264;6.592;2023-04-03T09:01:36;13.80;99.90
51996;DHT22;38010;53.264;6.592;2023-04-03T09:04:09;13.80;99.90
51996;DHT22;38010;53.264;6.592;2023-04-03T09:06:36;13.70;99.90
51996;DHT22;38010;53.264;6.592;2023-04-03T09:09:15;13.80;99.90
51996;DHT22;38010;53.264;6.592;2023-04-03T09:12:15;13.80;99.90
51996;DHT22;38010;53.264;6.592;2023-04-03T09:22:56;13.70;99.90
51996;DHT22;38010;53.264;6.592;2023-04-03T09:25:27;13.70;99.90
51996;DHT22;38010;53.264;6.592;2023-04-03T09:27:59;13.70;99.90
51996;DHT22;38010;53.264;6.592;2023-04-03T09:30:26;13.70;99.90
51996;DHT22;38010;53.264;6.592;2023-04-03T09:32:54;13.70;99.90
51996;DHT22;38010;53.264;6.592;2023-04-03T09:37:50;13.70;99.90
51996;DHT22;38010;53.264;6.592;2023-04-03T09:42:53;13.70;99.90
51996;DHT22;38010;53.264;6.592;2023-04-03T09:45:25;13.70;99.90
51996;DHT22;38010;53.264;6.592;2023-04-03T09:50:57;13.70;99.90
51996;DHT22;38010;53.264;6.592;2023-04-03T10:01:31;13.70;99.90
51996;DHT22;38010;53.264;6.592;2023-04-03T10:06:34;13.70;99.90
51996;DHT22;38010;53.264;6.592;2023-04-03T10:14:39;13.60;99.90
51996;DHT22;38010;53.264;6.592;2023-04-03T10:20:42;13.60;99.90
51996;DHT22;38010;53.264;6.592;2023-04-03T10:23:00;13.60;99.90
51996;DHT22;38010;53.264;6.592;2023-04-03T10:31:04;13.60;99.90
51996;DHT22;38010;53.264;6.592;2023-04-03T10:33:56;13.60;99.90
51996;DHT22;38010;53.264;6.592;2023-04-03T10:36:34;13.60;99.90
51996;DHT22;38010;53.264;6.592;2023-04-03T10:44:38;13.60;99.90
51996;DHT22;38010;53.264;6.592;2023-04-03T10:52:22;13.60;99.90
51996;DHT22;38010;53.264;6.592;2023-04-03T10:57:40;13.60;99.90
51996;DHT22;38010;53.264;6.592;2023-04-03T11:00:20;13.60;99.90
51996;DHT22;38010;53.264;6.592;2023-04-03T11:02:58;13.60;99.90
51996;DHT22;38010;53.264;6.592;2023-04-03T11:05:39;13.60;99.90
51996;DHT22;38010;53.264;6.592;2023-04-03T11:10:50;13.60;99.90
51996;DHT22;38010;53.264;6.592;2023-04-03T11:15:45;13.60;99.90
51996;DHT22;38010;53.264;6.592;2023-04-03T11:18:26;13.60;99.90
51996;DHT22;38010;53.264;6.592;2023-04-03T11:21:20;13.60;99.90
51996;DHT22;38010;53.264;6.592;2023-04-03T11:23:47;13.60;99.90
51996;DHT22;38010;53.264;6.592;2023-04-03T11:26:16;13.60;99.90
51996;DHT22;38010;53.264;6.592;2023-04-03T11:28:42;13.60;99.90
51996;DHT22;38010;53.264;6.592;2023-04-03T11:34:05;13.60;99.90
51996;DHT22;38010;53.264;6.592;2023-04-03T11:36:43;13.70;99.90
51996;DHT22;38010;53.264;6.592;2023-04-03T11:39:34;13.60;99.90
51996;DHT22;38010;53.264;6.592;2023-04-03T11:44:45;13.70;99.90
51996;DHT22;38010;53.264;6.592;2023-04-03T11:47:12;13.70;99.90
51996;DHT22;38010;53.264;6.592;2023-04-03T11:50:02;13.70;99.90
51996;DHT22;38010;53.264;6.592;2023-04-03T12:05:48;13.70;99.90
51996;DHT22;38010;53.264;6.592;2023-04-03T12:08:43;13.70;99.90
51996;DHT22;38010;53.264;6.592;2023-04-03T12:24:24;13.80;99.90
51996;DHT22;38010;53.264;6.592;2023-04-03T12:30:20;13.80;99.90
51996;DHT22;38010;53.264;6.592;2023-04-03T12:48:46;14.00;99.90
51996;DHT22;38010;53.264;6.592;2023-04-03T12:51:40;14.00;99.90
51996;DHT22;38010;53.264;6.592;2023-04-03T12:54:16;14.10;99.90
51996;DHT22;38010;53.264;6.592;2023-04-03T12:56:43;14.10;99.90
51996;DHT22;38010;53.264;6.592;2023-04-03T13:01:43;14.20;99.90
51996;DHT22;38010;53.264;6.592;2023-04-03T13:04:10;14.30;99.90
51996;DHT22;38010;53.264;6.592;2023-04-03T13:06:42;14.30;99.90
51996;DHT22;38010;53.264;6.592;2023-04-03T13:09:28;14.30;99.90
51996;DHT22;38010;53.264;6.592;2023-04-03T13:14:27;14.50;99.90
51996;DHT22;38010;53.264;6.592;2023-04-03T13:16:57;14.50;99.90
51996;DHT22;38010;53.264;6.592;2023-04-03T13:19:27;14.50;99.90
51996;DHT22;38010;53.264;6.592;2023-04-03T13:22:04;14.60;99.90
51996;DHT22;38010;53.264;6.592;2023-04-03T13:24:34;14.60;99.90
51996;DHT22;38010;53.264;6.592;2023-04-03T13:27:01;14.70;99.90
51996;DHT22;38010;53.264;6.592;2023-04-03T13:29:30;14.80;99.90
51996;DHT22;38010;53.264;6.592;2023-04-03T13:31:57;14.90;99.90
51996;DHT22;38010;53.264;6.592;2023-04-03T13:34:26;14.90;99.90
51996;DHT22;38010;53.264;6.592;2023-04-03T13:39:34;15.20;99.90
51996;DHT22;38010;53.264;6.592;2023-04-03T13:42:15;15.40;99.90
51996;DHT22;38010;53.264;6.592;2023-04-03T13:44:41;15.70;99.90
51996;DHT22;38010;53.264;6.592;2023-04-03T13:49:38;15.90;99.90
51996;DHT22;38010;53.264;6.592;2023-04-03T13:55:00;16.20;99.90
51996;DHT22;38010;53.264;6.592;2023-04-03T13:57:27;16.20;99.90
51996;DHT22;38010;53.264;6.592;2023-04-03T13:59:54;16.30;99.90
51996;DHT22;38010;53.264;6.592;2023-04-03T14:02:22;16.40;99.80
51996;DHT22;38010;53.264;6.592;2023-04-03T14:04:55;16.40;99.60
51996;DHT22;38010;53.264;6.592;2023-04-03T14:07:24;16.40;99.70
51996;DHT22;38010;53.264;6.592;2023-04-03T14:09:51;16.40;99.70
51996;DHT22;38010;53.264;6.592;2023-04-03T14:12:37;16.40;99.70
51996;DHT22;38010;53.264;6.592;2023-04-03T14:18:00;16.40;99.70
51996;DHT22;38010;53.264;6.592;2023-04-03T14:20:26;16.40;99.80
51996;DHT22;38010;53.264;6.592;2023-04-03T14:22:53;16.40;99.80
51996;DHT22;38010;53.264;6.592;2023-04-03T14:25:20;16.40;99.80
51996;DHT22;38010;53.264;6.592;2023-04-03T14:27:49;16.40;99.90
51996;DHT22;38010;53.264;6.592;2023-04-03T14:30:30;16.40;99.90
51996;DHT22;38010;53.264;6.592;2023-04-03T14:32:57;16.40;99.90
51996;DHT22;38010;53.264;6.592;2023-04-03T14:35:23;16.30;99.90
51996;DHT22;38010;53.264;6.592;2023-04-03T14:37:51;16.30;99.90
51996;DHT22;38010;53.264;6.592;2023-04-03T14:40:22;16.30;99.90
51996;DHT22;38010;53.264;6.592;2023-04-03T14:42:48;16.20;99.90
51996;DHT22;38010;53.264;6.592;2023-04-03T14:45:15;16.20;99.90
51996;DHT22;38010;53.264;6.592;2023-04-03T14:47:47;16.20;99.90
51996;DHT22;38010;53.264;6.592;2023-04-03T14:50:16;16.20;99.90
51996;DHT22;38010;53.264;6.592;2023-04-03T14:52:43;16.20;99.90
51996;DHT22;38010;53.264;6.592;2023-04-03T14:55:11;16.10;99.90
51996;DHT22;38010;53.264;6.592;2023-04-03T14:57:38;16.00;99.90
51996;DHT22;38010;53.264;6.592;2023-04-03T15:00:07;15.90;99.90
51996;DHT22;38010;53.264;6.592;2023-04-03T15:02:34;16.00;99.90
51996;DHT22;38010;53.264;6.592;2023-04-03T15:05:02;15.90;99.90
51996;DHT22;38010;53.264;6.592;2023-04-03T15:07:32;16.00;99.90
51996;DHT22;38010;53.264;6.592;2023-04-03T15:10:18;16.10;99.90
51996;DHT22;38010;53.264;6.592;2023-04-03T15:12:45;16.10;99.90
51996;DHT22;38010;53.264;6.592;2023-04-03T15:15:12;16.10;99.90
51996;DHT22;38010;53.264;6.592;2023-04-03T15:17:38;16.20;99.90
51996;DHT22;38010;53.264;6.592;2023-04-03T15:20:20;16.20;99.90
51996;DHT22;38010;53.264;6.592;2023-04-03T15:22:46;16.30;99.90
51996;DHT22;38010;53.264;6.592;2023-04-03T15:25:12;16.30;99.90
51996;DHT22;38010;53.264;6.592;2023-04-03T15:27:38;16.40;99.90
51996;DHT22;38010;53.264;6.592;2023-04-03T15:30:07;16.40;99.90
51996;DHT22;38010;53.264;6.592;2023-04-03T15:32:34;16.40;99.90
51996;DHT22;38010;53.264;6.592;2023-04-03T15:35:01;16.50;99.90
51996;DHT22;38010;53.264;6.592;2023-04-03T15:37:27;16.50;99.90
51996;DHT22;38010;53.264;6.592;2023-04-03T15:39:53;16.50;99.90
51996;DHT22;38010;53.264;6.592;2023-04-03T15:42:19;16.60;99.90
51996;DHT22;38010;53.264;6.592;2023-04-03T15:44:44;16.60;99.90
51996;DHT22;38010;53.264;6.592;2023-04-03T15:47:10;16.70;99.90
51996;DHT22;38010;53.264;6.592;2023-04-03T15:49:36;16.70;99.90
51996;DHT22;38010;53.264;6.592;2023-04-03T15:52:03;16.70;99.90
51996;DHT22;38010;53.264;6.592;2023-04-03T15:54:28;16.80;99.90
51996;DHT22;38010;53.264;6.592;2023-04-03T15:56:55;16.80;99.90
51996;DHT22;38010;53.264;6.592;2023-04-03T15:59:21;16.90;99.90
51996;DHT22;38010;53.264;6.592;2023-04-03T16:01:47;16.90;99.80
51996;DHT22;38010;53.264;6.592;2023-04-03T16:04:13;16.90;99.70
51996;DHT22;38010;53.264;6.592;2023-04-03T16:06:40;16.90;99.70
51996;DHT22;38010;53.264;6.592;2023-04-03T16:09:06;16.90;99.60
51996;DHT22;38010;53.264;6.592;2023-04-03T16:11:33;16.90;99.70
51996;DHT22;38010;53.264;6.592;2023-04-03T16:14:01;16.90;99.60
51996;DHT22;38010;53.264;6.592;2023-04-03T16:16:27;16.80;99.60
51996;DHT22;38010;53.264;6.592;2023-04-03T16:18:54;16.80;99.60
51996;DHT22;38010;53.264;6.592;2023-04-03T16:21:21;16.70;99.70
51996;DHT22;38010;53.264;6.592;2023-04-03T16:23:47;16.80;99.80
51996;DHT22;38010;53.264;6.592;2023-04-03T16:26:14;16.70;99.80
51996;DHT22;38010;53.264;6.592;2023-04-03T16:28:40;16.60;99.90
51996;DHT22;38010;53.264;6.592;2023-04-03T16:31:07;16.60;99.90
51996;DHT22;38010;53.264;6.592;2023-04-03T16:33:34;16.60;99.90
51996;DHT22;38010;53.264;6.592;2023-04-03T16:36:00;16.60;99.90
51996;DHT22;38010;53.264;6.592;2023-04-03T16:38:27;16.50;99.90
51996;DHT22;38010;53.264;6.592;2023-04-03T16:40:52;16.50;99.90
51996;DHT22;38010;53.264;6.592;2023-04-03T16:43:22;16.50;99.90
51996;DHT22;38010;53.264;6.592;2023-04-03T16:45:47;16.50;99.90
51996;DHT22;38010;53.264;6.592;2023-04-03T16:48:13;16.40;99.90
51996;DHT22;38010;53.264;6.592;2023-04-03T16:50:39;16.40;99.90
51996;DHT22;38010;53.264;6.592;2023-04-03T16:53:05;16.40;99.90
51996;DHT22;38010;53.264;6.592;2023-04-03T16:55:33;16.40;99.90
51996;DHT22;38010;53.264;6.592;2023-04-03T16:57:59;16.30;99.90
51996;DHT22;38010;53.264;6.592;2023-04-03T17:00:25;16.20;99.90
51996;DHT22;38010;53.264;6.592;2023-04-03T17:02:50;16.20;99.90
51996;DHT22;38010;53.264;6.592;2023-04-03T17:05:16;16.20;99.90
51996;DHT22;38010;53.264;6.592;2023-04-03T17:07:42;16.10;99.90
51996;DHT22;38010;53.264;6.592;2023-04-03T17:10:08;16.10;99.90
51996;DHT22;38010;53.264;6.592;2023-04-03T17:12:34;16.00;99.90
51996;DHT22;38010;53.264;6.592;2023-04-03T17:15:00;15.90;99.90
51996;DHT22;38010;53.264;6.592;2023-04-03T17:17:26;15.90;99.90
51996;DHT22;38010;53.264;6.592;2023-04-03T17:19:53;15.80;99.90
51996;DHT22;38010;53.264;6.592;2023-04-03T17:22:20;15.80;99.90
51996;DHT22;38010;53.264;6.592;2023-04-03T17:24:46;15.70;99.90
51996;DHT22;38010;53.264;6.592;2023-04-03T17:27:11;15.70;99.90
51996;DHT22;38010;53.264;6.592;2023-04-03T17:29:37;15.60;99.90
51996;DHT22;38010;53.264;6.592;2023-04-03T17:32:03;15.50;99.90
51996;DHT22;38010;53.264;6.592;2023-04-03T17:34:29;15.50;99.90
51996;DHT22;38010;53.264;6.592;2023-04-03T17:36:54;15.40;99.90
51996;DHT22;38010;53.264;6.592;2023-04-03T17:39:20;15.40;99.90
51996;DHT22;38010;53.264;6.592;2023-04-03T17:41:46;15.30;99.90
51996;DHT22;38010;53.264;6.592;2023-04-03T17:44:13;15.30;99.90
51996;DHT22;38010;53.264;6.592;2023-04-03T17:46:39;15.20;99.90
51996;DHT22;38010;53.264;6.592;2023-04-03T17:49:05;15.20;99.90